createdAt,value
2019-02-15T00:01:00.920Z,6.95
2019-02-15T00:02:35.629Z,5.62
2019-02-15T00:04:11.135Z,6.75
2019-02-15T00:05:46.154Z,7.58
2019-02-15T00:07:20.881Z,6.85
2019-02-15T00:08:55.660Z,6.50
2019-02-15T00:10:30.378Z,4.72
2019-02-15T00:12:05.129Z,5.97
2019-02-15T00:13:39.869Z,7.87
2019-02-15T00:15:14.740Z,6.42
2019-02-15T00:16:49.497Z,6.67
2019-02-15T00:18:31.841Z,5.70
2019-02-15T00:20:10.126Z,5.95
2019-02-15T00:21:47.250Z,6.05
2019-02-15T00:23:22.106Z,6.20
2019-02-15T00:24:57.881Z,7.67
2019-02-15T00:26:32.994Z,5.42
2019-02-15T00:28:07.728Z,8.38
2019-02-15T00:29:42.436Z,8.25
2019-02-15T00:31:19.776Z,5.00
2019-02-15T00:32:54.638Z,4.65
2019-02-15T00:34:29.423Z,6.33
2019-02-15T00:36:04.174Z,6.17
2019-02-15T00:37:40.013Z,6.08
2019-02-15T00:39:14.842Z,4.42
2019-02-15T00:40:49.551Z,5.20
2019-02-15T00:42:24.270Z,6.42
2019-02-15T00:43:58.994Z,5.87
2019-02-15T00:45:38.805Z,5.00
2019-02-15T00:47:36.754Z,5.92
2019-02-15T00:49:17.050Z,6.30
2019-02-15T00:51:04.817Z,6.10
2019-02-15T00:53:01.388Z,6.47
2019-02-15T00:54:42.732Z,5.03
2019-02-15T00:56:36.541Z,6.62
2019-02-15T00:58:36.528Z,4.67
2019-02-15T01:00:34.405Z,4.90
2019-02-15T01:02:22.358Z,5.72
2019-02-15T01:04:16.253Z,7.00
2019-02-15T01:06:06.621Z,5.65
2019-02-15T01:08:15.626Z,4.45
2019-02-15T01:10:01.622Z,5.28
2019-02-15T01:11:43.774Z,5.80
2019-02-15T01:13:20.990Z,4.72
2019-02-15T01:14:55.814Z,7.42
2019-02-15T01:16:30.658Z,5.37
2019-02-15T01:18:05.523Z,6.42
2019-02-15T01:19:40.243Z,4.78
2019-02-15T01:21:15.073Z,4.97
2019-02-15T01:22:49.858Z,6.97
2019-02-15T01:24:24.662Z,7.17
2019-02-15T01:26:09.546Z,5.75
2019-02-15T01:28:01.726Z,5.22
2019-02-15T01:30:10.350Z,5.03
2019-02-15T01:32:06.918Z,7.33
2019-02-15T01:33:49.070Z,6.83
2019-02-15T01:35:29.926Z,5.75
2019-02-15T01:37:18.593Z,4.92
2019-02-15T01:39:27.586Z,5.10
2019-02-15T01:41:11.726Z,5.28
2019-02-15T01:42:53.000Z,7.65
2019-02-15T01:44:56.011Z,5.22
2019-02-15T01:46:34.707Z,6.33
2019-02-15T01:48:09.526Z,5.58
2019-02-15T01:49:44.402Z,5.30
2019-02-15T01:51:19.122Z,5.30
2019-02-15T01:52:53.838Z,7.72
2019-02-15T01:54:28.634Z,8.60
2019-02-15T01:56:03.380Z,5.53
2019-02-15T01:57:38.094Z,5.58
2019-02-15T01:59:12.849Z,7.05
2019-02-15T02:00:47.702Z,7.12
2019-02-15T02:02:24.099Z,5.35
2019-02-15T02:03:58.901Z,6.58
2019-02-15T02:05:33.634Z,5.80
2019-02-15T02:07:08.426Z,8.83
2019-02-15T02:08:43.146Z,5.70
2019-02-15T02:10:18.315Z,5.80
2019-02-15T02:11:53.196Z,5.20
2019-02-15T02:13:28.001Z,6.00
2019-02-15T02:15:03.295Z,5.17
2019-02-15T02:16:38.300Z,5.22
2019-02-15T02:18:13.044Z,9.40
2019-02-15T02:19:47.876Z,7.28
2019-02-15T02:21:22.670Z,6.92
2019-02-15T02:22:57.405Z,4.37
2019-02-15T02:24:32.218Z,5.30
2019-02-15T02:26:06.963Z,5.45
2019-02-15T02:27:41.755Z,6.05
2019-02-15T02:29:16.554Z,5.78
2019-02-15T02:30:51.315Z,8.23
2019-02-15T02:32:26.050Z,6.35
2019-02-15T02:34:00.800Z,5.97
2019-02-15T02:35:35.758Z,5.03
2019-02-15T02:37:10.490Z,6.78
2019-02-15T02:38:45.356Z,6.05
2019-02-15T02:40:20.146Z,5.90
2019-02-15T02:41:54.870Z,4.95
2019-02-15T02:43:29.586Z,5.00
2019-02-15T02:45:04.625Z,6.22
2019-02-15T02:46:40.322Z,5.75
2019-02-15T02:48:15.131Z,6.87
2019-02-15T02:49:49.932Z,5.95
2019-02-15T02:51:24.743Z,7.15
2019-02-15T02:52:59.475Z,6.08
2019-02-15T02:54:34.285Z,4.85
2019-02-15T02:56:09.067Z,5.03
2019-02-15T02:57:43.874Z,7.22
2019-02-15T02:59:18.583Z,4.67
2019-02-15T03:00:53.395Z,5.37
2019-02-15T03:02:28.169Z,5.87
2019-02-15T03:04:03.970Z,5.60
2019-02-15T03:05:38.844Z,6.62
2019-02-15T03:07:13.765Z,5.65
2019-02-15T03:08:48.497Z,6.10
2019-02-15T03:10:23.311Z,5.53
2019-02-15T03:11:58.116Z,5.45
2019-02-15T03:13:33.109Z,6.65
2019-02-15T03:15:08.369Z,6.67
2019-02-15T03:16:43.195Z,7.20
2019-02-15T03:18:17.914Z,6.08
2019-02-15T03:19:52.665Z,5.15
2019-02-15T03:21:28.482Z,6.67
2019-02-15T03:23:03.474Z,5.35
2019-02-15T03:24:38.275Z,5.20
2019-02-15T03:26:13.133Z,4.55
2019-02-15T03:27:47.899Z,4.78
2019-02-15T03:29:22.613Z,5.10
2019-02-15T03:30:57.532Z,5.12
2019-02-15T03:32:32.316Z,5.28
2019-02-15T03:34:07.161Z,4.65
2019-02-15T03:35:54.326Z,5.08
2019-02-15T03:37:39.897Z,5.22
2019-02-15T03:39:39.811Z,4.70
2019-02-15T03:41:28.470Z,4.65
2019-02-15T03:43:03.277Z,5.47
2019-02-15T03:44:38.445Z,5.50
2019-02-15T03:46:13.309Z,5.50
2019-02-15T03:47:48.113Z,4.95
2019-02-15T03:49:22.903Z,7.53
2019-02-15T03:50:57.775Z,6.25
2019-02-15T03:52:32.522Z,5.25
2019-02-15T03:54:07.329Z,5.42
2019-02-15T03:55:42.157Z,5.55
2019-02-15T03:57:18.474Z,6.10
2019-02-15T03:58:53.713Z,8.08
2019-02-15T04:00:28.591Z,6.22
2019-02-15T04:02:03.864Z,4.47
2019-02-15T04:03:38.586Z,11.25
2019-02-15T04:05:13.402Z,5.35
2019-02-15T04:06:48.219Z,5.72
2019-02-15T04:08:23.083Z,4.65
2019-02-15T04:09:57.934Z,4.90
2019-02-15T04:11:32.722Z,6.65
2019-02-15T04:13:07.500Z,5.25
2019-02-15T04:14:42.258Z,5.37
2019-02-15T04:16:17.050Z,5.97
2019-02-15T04:17:51.906Z,5.72
2019-02-15T04:19:26.645Z,4.58
2019-02-15T04:21:01.434Z,4.92
2019-02-15T04:22:36.223Z,6.25
2019-02-15T04:24:13.366Z,8.53
2019-02-15T04:25:47.379Z,5.65
2019-02-15T04:27:23.143Z,6.08
2019-02-15T04:28:57.943Z,6.67
2019-02-15T04:30:32.765Z,8.03
2019-02-15T04:32:07.556Z,6.80
2019-02-15T04:33:42.348Z,4.12
2019-02-15T04:35:17.158Z,5.72
2019-02-15T04:36:51.955Z,6.00
2019-02-15T04:38:26.758Z,5.15
2019-02-15T04:40:01.550Z,6.78
2019-02-15T04:41:36.343Z,5.78
2019-02-15T04:43:11.087Z,5.47
2019-02-15T04:44:45.917Z,4.85
2019-02-15T04:46:20.690Z,5.92
2019-02-15T04:47:55.543Z,6.22
2019-02-15T04:49:30.363Z,7.28
2019-02-15T04:51:05.160Z,5.37
2019-02-15T04:52:40.049Z,8.60
2019-02-15T04:54:14.942Z,5.10
2019-02-15T04:55:49.687Z,6.47
2019-02-15T04:57:24.541Z,4.20
2019-02-15T04:58:59.300Z,5.65
2019-02-15T05:00:34.081Z,5.12
2019-02-15T05:02:08.860Z,5.28
2019-02-15T05:03:43.686Z,4.70
2019-02-15T05:05:18.400Z,4.55
2019-02-15T05:06:53.115Z,4.53
2019-02-15T05:08:27.825Z,5.92
2019-02-15T05:10:02.697Z,6.25
2019-02-15T05:11:37.547Z,5.67
2019-02-15T05:13:12.362Z,5.40
2019-02-15T05:14:53.221Z,5.78
2019-02-15T05:16:23.557Z,5.47
2019-02-15T05:17:58.455Z,5.80
2019-02-15T05:19:33.297Z,5.92
2019-02-15T05:21:08.030Z,4.45
2019-02-15T05:22:42.803Z,5.55
2019-02-15T05:24:17.530Z,5.37
2019-02-15T05:25:52.247Z,4.92
2019-02-15T05:27:27.041Z,6.70
2019-02-15T05:29:01.857Z,6.97
2019-02-15T05:30:36.590Z,5.87
2019-02-15T05:32:11.319Z,4.55
2019-02-15T05:33:46.055Z,4.78
2019-02-15T05:35:20.882Z,5.42
2019-02-15T05:36:55.634Z,5.42
2019-02-15T05:38:30.355Z,7.70
2019-02-15T05:40:05.864Z,4.92
2019-02-15T05:41:40.577Z,7.15
2019-02-15T05:43:15.342Z,4.90
2019-02-15T05:44:50.209Z,5.08
2019-02-15T05:46:24.914Z,4.67
2019-02-15T05:47:59.623Z,5.85
2019-02-15T05:49:34.418Z,5.92
2019-02-15T05:51:09.270Z,5.37
2019-02-15T05:52:44.054Z,6.20
2019-02-15T05:54:19.009Z,5.08
2019-02-15T05:55:54.015Z,5.15
2019-02-15T05:57:28.826Z,5.12
2019-02-15T05:59:03.582Z,5.72
2019-02-15T06:00:38.405Z,6.47
2019-02-15T06:02:13.225Z,6.50
2019-02-15T06:03:48.105Z,6.35
2019-02-15T06:05:22.938Z,5.03
2019-02-15T06:06:57.658Z,6.03
2019-02-15T06:08:32.439Z,6.20
2019-02-15T06:10:07.917Z,4.97
2019-02-15T06:11:42.826Z,6.85
2019-02-15T06:13:17.700Z,6.62
2019-02-15T06:14:55.562Z,4.60
2019-02-15T06:16:30.389Z,7.10
2019-02-15T06:18:06.191Z,6.60
2019-02-15T06:19:41.106Z,5.62
2019-02-15T06:21:15.866Z,4.72
2019-02-15T06:22:50.687Z,6.83
2019-02-15T06:24:25.558Z,4.42
2019-02-15T06:26:00.331Z,5.72
2019-02-15T06:27:35.166Z,5.00
2019-02-15T06:29:09.962Z,4.70
2019-02-15T06:30:44.822Z,5.17
2019-02-15T06:32:19.638Z,4.62
2019-02-15T06:33:55.371Z,5.90
2019-02-15T06:35:30.157Z,5.90
2019-02-15T06:37:04.979Z,4.87
2019-02-15T06:38:39.813Z,5.55
2019-02-15T06:40:14.578Z,5.35
2019-02-15T06:41:49.342Z,5.78
2019-02-15T06:43:24.359Z,5.53
2019-02-15T06:44:59.184Z,5.72
2019-02-15T06:46:33.931Z,4.10
2019-02-15T06:48:08.707Z,4.30
2019-02-15T06:49:43.514Z,6.60
2019-02-15T06:51:18.394Z,4.37
2019-02-15T06:52:53.182Z,4.97
2019-02-15T06:54:27.906Z,5.15
2019-02-15T06:56:02.632Z,5.90
2019-02-15T06:57:37.410Z,5.47
2019-02-15T06:59:23.367Z,5.67
2019-02-15T07:01:20.189Z,4.75
2019-02-15T07:02:59.458Z,4.85
2019-02-15T07:04:38.498Z,5.22
2019-02-15T07:06:13.202Z,6.92
2019-02-15T07:07:48.052Z,5.42
2019-02-15T07:09:35.236Z,4.90
2019-02-15T07:11:09.979Z,4.00
2019-02-15T07:12:44.686Z,5.47
2019-02-15T07:14:20.843Z,5.72
2019-02-15T07:15:56.330Z,4.78
2019-02-15T07:17:31.146Z,4.83
2019-02-15T07:19:05.993Z,6.45
2019-02-15T07:20:40.810Z,4.72
2019-02-15T07:22:15.560Z,4.33
2019-02-15T07:23:50.362Z,4.42
2019-02-15T07:25:25.145Z,4.92
2019-02-15T07:27:01.230Z,6.30
2019-02-15T07:28:36.994Z,3.58
2019-02-15T07:30:12.379Z,4.80
2019-02-15T07:31:47.165Z,4.20
2019-02-15T07:33:25.065Z,5.10
2019-02-15T07:34:59.854Z,4.85
2019-02-15T07:36:34.667Z,4.12
2019-02-15T07:38:09.445Z,3.67
2019-02-15T07:39:44.258Z,3.83
2019-02-15T07:41:19.038Z,6.05
2019-02-15T07:42:53.904Z,6.53
2019-02-15T07:44:28.684Z,5.60
2019-02-15T07:46:03.420Z,6.15
2019-02-15T07:47:39.174Z,5.22
2019-02-15T07:49:14.002Z,6.67
2019-02-15T07:50:49.085Z,4.40
2019-02-15T07:52:24.012Z,4.42
2019-02-15T07:53:58.723Z,4.67
2019-02-15T07:55:33.485Z,3.85
2019-02-15T07:57:08.689Z,4.17
2019-02-15T07:58:43.481Z,4.58
2019-02-15T08:00:18.271Z,5.15
2019-02-15T08:02:01.349Z,6.40
2019-02-15T08:03:29.761Z,4.35
2019-02-15T08:05:05.048Z,4.60
2019-02-15T08:06:39.857Z,3.95
2019-02-15T08:08:14.651Z,7.55
2019-02-15T08:09:49.387Z,3.92
2019-02-15T08:11:24.235Z,5.97
2019-02-15T08:12:59.070Z,5.67
2019-02-15T08:14:33.883Z,4.10
2019-02-15T08:16:08.825Z,3.72
2019-02-15T08:17:43.618Z,7.85
2019-02-15T08:19:18.373Z,4.55
2019-02-15T08:20:53.177Z,5.10
2019-02-15T08:22:27.999Z,4.67
2019-02-15T08:24:02.837Z,3.00
2019-02-15T08:25:37.642Z,6.30
2019-02-15T08:27:12.378Z,4.12
2019-02-15T08:28:47.124Z,5.65
2019-02-15T08:30:22.237Z,3.90
2019-02-15T08:31:57.002Z,3.87
2019-02-15T08:33:31.798Z,3.67
2019-02-15T08:35:07.462Z,4.03
2019-02-15T08:36:42.222Z,3.67
2019-02-15T08:38:17.011Z,4.00
2019-02-15T08:39:51.781Z,4.17
2019-02-15T08:41:26.641Z,4.70
2019-02-15T08:43:01.422Z,3.55
2019-02-15T08:44:36.238Z,4.03
2019-02-15T08:46:14.007Z,5.40
2019-02-15T08:47:48.795Z,5.47
2019-02-15T08:49:23.581Z,5.43
2019-02-15T08:50:58.435Z,4.55
2019-02-15T08:52:33.291Z,3.40
2019-02-15T08:54:08.019Z,4.75
2019-02-15T08:55:42.856Z,4.43
2019-02-15T08:57:17.669Z,5.10
2019-02-15T08:58:52.490Z,5.17
2019-02-15T09:00:27.337Z,3.77
2019-02-15T09:02:11.055Z,3.37
2019-02-15T09:03:45.796Z,3.42
2019-02-15T09:05:20.597Z,3.97
2019-02-15T09:06:55.361Z,4.17
2019-02-15T09:08:30.220Z,3.73
2019-02-15T09:10:06.521Z,3.63
2019-02-15T09:11:41.231Z,4.47
2019-02-15T09:13:16.038Z,5.97
2019-02-15T09:14:50.874Z,3.80
2019-02-15T09:16:25.654Z,4.23
2019-02-15T09:18:00.423Z,3.40
2019-02-15T09:19:36.178Z,4.70
2019-02-15T09:21:11.019Z,4.53
2019-02-15T09:22:46.060Z,4.20
2019-02-15T09:24:20.877Z,4.63
2019-02-15T09:25:55.666Z,5.00
2019-02-15T09:27:38.286Z,4.30
2019-02-15T09:29:13.089Z,4.57
2019-02-15T09:30:51.677Z,5.13
2019-02-15T09:32:27.442Z,4.50
2019-02-15T09:34:02.174Z,3.53
2019-02-15T09:35:37.241Z,4.07
2019-02-15T09:37:11.957Z,5.73
2019-02-15T09:38:47.031Z,3.23
2019-02-15T09:40:21.862Z,3.50
2019-02-15T09:41:56.597Z,4.03
2019-02-15T09:43:31.435Z,5.10
2019-02-15T09:45:08.548Z,4.33
2019-02-15T09:46:43.277Z,2.97
2019-02-15T09:48:18.423Z,3.00
2019-02-15T09:49:53.149Z,2.93
2019-02-15T09:51:27.901Z,2.70
2019-02-15T09:53:02.814Z,2.50
2019-02-15T09:54:37.555Z,3.03
2019-02-15T09:56:12.279Z,3.53
2019-02-15T09:57:47.330Z,2.27
2019-02-15T09:59:22.045Z,3.60
2019-02-15T10:00:57.032Z,3.20
2019-02-15T10:02:31.809Z,2.67
2019-02-15T10:04:06.551Z,4.47
2019-02-15T10:05:41.262Z,2.87
2019-02-15T10:07:16.045Z,2.87
2019-02-15T10:08:50.939Z,3.40
2019-02-15T10:10:25.655Z,2.37
2019-02-15T10:12:01.479Z,3.30
2019-02-15T10:13:36.462Z,3.57
2019-02-15T10:15:11.402Z,3.80
2019-02-15T10:16:46.202Z,2.33
2019-02-15T10:18:21.071Z,2.60
2019-02-15T10:19:55.828Z,4.27
2019-02-15T10:21:30.757Z,4.37
2019-02-15T10:23:05.621Z,4.10
2019-02-15T10:24:40.428Z,5.50
2019-02-15T10:26:15.274Z,3.63
2019-02-15T10:27:50.137Z,3.60
2019-02-15T10:29:24.939Z,2.50
2019-02-15T10:30:59.807Z,2.47
2019-02-15T10:32:34.676Z,3.03
2019-02-15T10:34:09.466Z,2.37
2019-02-15T10:35:44.274Z,4.10
2019-02-15T10:37:19.091Z,3.03
2019-02-15T10:38:55.641Z,2.33
2019-02-15T10:40:30.566Z,2.47
2019-02-15T10:42:05.460Z,2.50
2019-02-15T10:43:40.319Z,3.43
2019-02-15T10:45:15.223Z,3.63
2019-02-15T10:46:51.438Z,3.30
2019-02-15T10:48:27.589Z,2.27
2019-02-15T10:50:02.374Z,2.43
2019-02-15T10:51:38.083Z,3.33
2019-02-15T10:53:13.065Z,2.40
2019-02-15T10:54:47.985Z,2.57
2019-02-15T10:56:22.798Z,2.90
2019-02-15T10:57:57.627Z,2.43
2019-02-15T10:59:32.673Z,3.30
2019-02-15T11:01:07.830Z,3.77
2019-02-15T11:02:44.541Z,2.70
2019-02-15T11:04:19.271Z,3.00
2019-02-15T11:05:54.070Z,2.80
2019-02-15T11:07:28.894Z,3.70
2019-02-15T11:09:05.494Z,2.30
2019-02-15T11:10:40.325Z,2.63
2019-02-15T11:12:16.150Z,2.80
2019-02-15T11:13:50.995Z,2.83
2019-02-15T11:15:25.926Z,3.27
2019-02-15T11:17:03.053Z,3.03
2019-02-15T11:18:37.399Z,3.53
2019-02-15T11:20:13.150Z,2.60
2019-02-15T11:21:48.075Z,2.60
2019-02-15T11:23:22.886Z,3.83
2019-02-15T11:24:57.621Z,2.20
2019-02-15T11:26:32.609Z,3.17
2019-02-15T11:28:07.475Z,2.33
2019-02-15T11:29:42.182Z,2.23
2019-02-15T11:31:17.147Z,1.97
2019-02-15T11:32:52.116Z,2.00
2019-02-15T11:34:26.990Z,1.87
2019-02-15T11:36:01.751Z,2.17
2019-02-15T11:37:36.491Z,2.77
2019-02-15T11:39:11.301Z,2.10
2019-02-15T11:40:46.143Z,3.13
2019-02-15T11:42:20.938Z,1.90
2019-02-15T11:43:55.727Z,2.70
2019-02-15T11:45:30.549Z,2.00
2019-02-15T11:47:06.781Z,5.43
2019-02-15T11:48:41.662Z,2.03
2019-02-15T11:50:16.419Z,2.23
2019-02-15T11:51:51.134Z,1.80
2019-02-15T11:53:26.025Z,2.23
2019-02-15T11:55:00.802Z,2.53
2019-02-15T11:56:35.533Z,2.30
2019-02-15T11:58:10.261Z,2.57
2019-02-15T11:59:45.061Z,2.17
2019-02-15T12:01:19.925Z,1.40
2019-02-15T12:02:54.655Z,2.37
2019-02-15T12:04:29.405Z,2.23
2019-02-15T12:06:04.337Z,2.03
2019-02-15T12:07:39.202Z,2.97
2019-02-15T12:09:14.006Z,1.67
2019-02-15T12:10:48.867Z,2.17
2019-02-15T12:12:23.677Z,4.37
2019-02-15T12:13:58.389Z,1.90
2019-02-15T12:15:35.130Z,2.03
2019-02-15T12:17:09.646Z,2.90
2019-02-15T12:18:44.459Z,2.20
2019-02-15T12:20:19.210Z,2.77
2019-02-15T12:21:54.028Z,2.40
2019-02-15T12:23:28.853Z,3.60
2019-02-15T12:25:03.926Z,1.77
2019-02-15T12:26:38.793Z,2.67
2019-02-15T12:28:13.637Z,2.20
2019-02-15T12:29:48.458Z,1.50
2019-02-15T12:31:23.190Z,2.00
2019-02-15T12:32:58.029Z,2.57
2019-02-15T12:34:32.860Z,2.53
2019-02-15T12:36:07.605Z,1.83
2019-02-15T12:37:42.512Z,2.23
2019-02-15T12:39:17.386Z,1.83
2019-02-15T12:40:52.213Z,2.07
2019-02-15T12:42:26.950Z,2.10
2019-02-15T12:44:01.689Z,1.40
2019-02-15T12:45:36.525Z,1.47
2019-02-15T12:47:15.186Z,2.00
2019-02-15T12:48:48.718Z,1.87
2019-02-15T12:50:23.634Z,2.00
2019-02-15T12:51:58.422Z,2.17
2019-02-15T12:53:33.196Z,1.90
2019-02-15T12:55:08.049Z,1.80
2019-02-15T12:56:42.861Z,2.03
2019-02-15T12:58:17.683Z,2.17
2019-02-15T12:59:52.506Z,1.47
2019-02-15T13:01:27.230Z,3.50
2019-02-15T13:03:01.952Z,1.57
2019-02-15T13:04:36.760Z,3.27
2019-02-15T13:06:11.577Z,2.80
2019-02-15T13:07:46.473Z,1.47
2019-02-15T13:09:21.222Z,1.93
2019-02-15T13:10:56.052Z,1.60
2019-02-15T13:12:30.926Z,7.30
2019-02-15T13:14:05.658Z,2.47
2019-02-15T13:15:41.362Z,2.73
2019-02-15T13:17:24.433Z,2.40
2019-02-15T13:18:52.513Z,1.63
2019-02-15T13:20:27.370Z,1.87
2019-02-15T13:22:02.113Z,2.20
2019-02-15T13:23:37.919Z,2.33
2019-02-15T13:25:12.743Z,2.27
2019-02-15T13:26:47.606Z,1.47
2019-02-15T13:28:22.435Z,2.03
2019-02-15T13:29:57.259Z,1.50
2019-02-15T13:31:31.985Z,2.10
2019-02-15T13:33:07.018Z,1.63
2019-02-15T13:34:41.793Z,1.57
2019-02-15T13:36:16.682Z,2.37
2019-02-15T13:37:51.998Z,2.40
2019-02-15T13:39:26.803Z,1.73
2019-02-15T13:41:01.657Z,1.63
2019-02-15T13:42:36.550Z,1.10
2019-02-15T13:44:11.354Z,3.03
2019-02-15T13:45:46.282Z,1.60
2019-02-15T13:47:21.186Z,1.63
2019-02-15T13:48:56.022Z,3.13
2019-02-15T13:50:30.846Z,2.10
2019-02-15T13:52:05.625Z,2.33
2019-02-15T13:53:40.551Z,2.67
2019-02-15T13:55:15.292Z,1.63
2019-02-15T13:56:50.174Z,2.40
2019-02-15T13:58:25.021Z,1.70
2019-02-15T13:59:59.795Z,3.17
2019-02-15T14:01:34.560Z,1.90
2019-02-15T14:03:09.438Z,1.13
2019-02-15T14:04:44.601Z,2.73
2019-02-15T14:06:19.325Z,1.63
2019-02-15T14:07:54.140Z,2.63
2019-02-15T14:09:28.908Z,1.90
2019-02-15T14:11:03.777Z,1.40
2019-02-15T14:12:38.675Z,1.63
2019-02-15T14:14:13.474Z,3.00
2019-02-15T14:15:48.366Z,1.43
2019-02-15T14:17:23.168Z,1.67
2019-02-15T14:18:57.926Z,2.07
2019-02-15T14:20:32.730Z,1.20
2019-02-15T14:22:07.593Z,2.67
2019-02-15T14:23:42.391Z,2.00
2019-02-15T14:25:17.146Z,1.87
2019-02-15T14:26:51.945Z,1.53
2019-02-15T14:28:26.717Z,1.60
2019-02-15T14:30:01.618Z,1.70
2019-02-15T14:31:36.461Z,1.40
2019-02-15T14:33:11.329Z,2.00
2019-02-15T14:34:46.402Z,1.17
2019-02-15T14:36:21.270Z,1.33
2019-02-15T14:37:56.196Z,1.90
2019-02-15T14:39:31.122Z,1.47
2019-02-15T14:41:06.144Z,1.57
2019-02-15T14:42:41.152Z,1.67
2019-02-15T14:44:16.941Z,1.63
2019-02-15T14:45:51.695Z,3.03
2019-02-15T14:47:26.571Z,2.43
2019-02-15T14:49:01.403Z,1.63
2019-02-15T14:50:36.442Z,2.30
2019-02-15T14:52:11.301Z,1.40
2019-02-15T14:53:46.101Z,1.53
2019-02-15T14:55:20.930Z,1.43
2019-02-15T14:56:55.715Z,1.30
2019-02-15T14:58:30.518Z,1.93
2019-02-15T15:00:06.674Z,1.67
2019-02-15T15:01:41.500Z,1.27
2019-02-15T15:03:16.421Z,1.13
2019-02-15T15:04:51.255Z,2.03
2019-02-15T15:06:25.958Z,1.20
2019-02-15T15:08:00.766Z,1.53
2019-02-15T15:09:35.533Z,2.17
2019-02-15T15:11:10.337Z,1.40
2019-02-15T15:12:45.131Z,2.30
2019-02-15T15:14:21.028Z,2.27
2019-02-15T15:15:55.774Z,2.23
2019-02-15T15:17:31.472Z,1.90
2019-02-15T15:19:06.605Z,1.53
2019-02-15T15:20:41.518Z,1.73
2019-02-15T15:22:16.337Z,0.93
2019-02-15T15:23:51.171Z,1.53
2019-02-15T15:25:26.053Z,3.30
2019-02-15T15:27:03.494Z,1.90
2019-02-15T15:28:39.331Z,2.40
2019-02-15T15:30:15.476Z,2.13
2019-02-15T15:31:50.292Z,2.97
2019-02-15T15:33:25.196Z,3.57
2019-02-15T15:34:59.988Z,2.73
2019-02-15T15:36:34.729Z,1.57
2019-02-15T15:38:09.611Z,1.50
2019-02-15T15:39:44.494Z,2.83
2019-02-15T15:41:19.378Z,2.47
2019-02-15T15:42:54.122Z,2.73
2019-02-15T15:44:28.946Z,1.33
2019-02-15T15:46:03.709Z,1.80
2019-02-15T15:47:38.465Z,2.83
2019-02-15T15:49:16.719Z,2.83
2019-02-15T15:50:49.673Z,2.80
2019-02-15T15:52:24.549Z,2.67
2019-02-15T15:54:01.926Z,1.27
2019-02-15T15:55:36.664Z,1.83
2019-02-15T15:57:11.490Z,1.33
2019-02-15T15:58:46.349Z,1.60
2019-02-15T16:00:21.223Z,1.40
2019-02-15T16:01:55.963Z,1.40
2019-02-15T16:03:30.729Z,1.10
2019-02-15T16:05:05.937Z,2.23
2019-02-15T16:06:40.765Z,1.10
2019-02-15T16:08:15.498Z,1.73
2019-02-15T16:09:50.382Z,1.30
2019-02-15T16:11:25.129Z,1.73
2019-02-15T16:13:00.845Z,1.77
2019-02-15T16:14:35.575Z,1.57
2019-02-15T16:16:10.372Z,1.83
2019-02-15T16:17:45.160Z,2.47
2019-02-15T16:19:20.217Z,1.50
2019-02-15T16:20:54.965Z,2.53
2019-02-15T16:22:29.758Z,1.67
2019-02-15T16:24:12.278Z,2.03
2019-02-15T16:25:41.048Z,1.50
2019-02-15T16:27:15.829Z,2.33
2019-02-15T16:28:50.647Z,1.40
2019-02-15T16:30:25.821Z,2.00
2019-02-15T16:32:00.574Z,3.10
2019-02-15T16:33:35.294Z,1.50
2019-02-15T16:35:10.547Z,1.53
2019-02-15T16:36:45.321Z,2.73
2019-02-15T16:38:20.048Z,1.90
2019-02-15T16:39:54.834Z,1.73
2019-02-15T16:41:29.651Z,2.60
2019-02-15T16:43:04.595Z,2.60
2019-02-15T16:44:39.319Z,2.83
2019-02-15T16:46:14.118Z,2.03
2019-02-15T16:47:48.847Z,3.63
2019-02-15T16:49:23.585Z,2.70
2019-02-15T16:50:58.306Z,1.53
2019-02-15T16:52:33.054Z,2.07
2019-02-15T16:54:07.794Z,2.57
2019-02-15T16:55:42.605Z,1.90
2019-02-15T16:57:17.389Z,1.97
2019-02-15T16:58:52.270Z,3.13
2019-02-15T17:00:27.081Z,1.80
2019-02-15T17:02:01.894Z,3.37
2019-02-15T17:03:36.626Z,1.30
2019-02-15T17:05:11.595Z,1.60
2019-02-15T17:06:46.384Z,1.60
2019-02-15T17:08:21.201Z,1.57
2019-02-15T17:09:55.942Z,2.47
2019-02-15T17:11:30.651Z,3.50
2019-02-15T17:13:05.778Z,2.67
2019-02-15T17:14:40.527Z,2.60
2019-02-15T17:16:15.272Z,3.17
2019-02-15T17:17:50.164Z,2.87
2019-02-15T17:19:24.891Z,3.00
2019-02-15T17:20:59.633Z,1.53
2019-02-15T17:22:34.365Z,2.93
2019-02-15T17:24:09.144Z,3.33
2019-02-15T17:25:45.901Z,4.57
2019-02-15T17:27:20.509Z,4.70
2019-02-15T17:28:55.228Z,2.20
2019-02-15T17:30:30.094Z,3.17
2019-02-15T17:32:05.000Z,3.37
2019-02-15T17:33:39.829Z,2.00
2019-02-15T17:35:14.612Z,2.77
2019-02-15T17:36:49.405Z,2.53
2019-02-15T17:38:24.260Z,2.33
2019-02-15T17:39:59.070Z,2.47
2019-02-15T17:41:33.913Z,3.27
2019-02-15T17:43:08.648Z,2.37
2019-02-15T17:44:43.393Z,3.17
2019-02-15T17:46:18.230Z,2.40
2019-02-15T17:47:53.057Z,3.10
2019-02-15T17:49:27.859Z,4.77
2019-02-15T17:51:02.629Z,2.13
2019-02-15T17:52:37.477Z,2.13
2019-02-15T17:54:12.311Z,3.70
2019-02-15T17:55:47.208Z,2.17
2019-02-15T17:57:22.039Z,2.90
2019-02-15T17:58:56.903Z,13.37
2019-02-15T18:00:32.585Z,13.73
2019-02-15T18:02:09.109Z,18.87
2019-02-15T18:03:44.035Z,21.77
2019-02-15T18:05:18.861Z,13.63
2019-02-15T18:06:53.689Z,3.87
2019-02-15T18:08:28.501Z,14.20
2019-02-15T18:10:03.549Z,8.23
2019-02-15T18:11:38.405Z,8.50
2019-02-15T18:13:13.342Z,2.83
2019-02-15T18:14:48.135Z,8.33
2019-02-15T18:16:24.257Z,3.40
2019-02-15T18:17:59.083Z,4.73
2019-02-15T18:19:33.810Z,3.73
2019-02-15T18:21:08.887Z,2.27
2019-02-15T18:22:43.735Z,2.83
2019-02-15T18:24:18.548Z,4.50
2019-02-15T18:25:54.254Z,4.30
2019-02-15T18:27:29.086Z,3.83
2019-02-15T18:29:03.899Z,3.10
2019-02-15T18:30:38.769Z,4.40
2019-02-15T18:32:13.505Z,4.60
2019-02-15T18:33:48.232Z,5.23
2019-02-15T18:35:22.955Z,4.40
2019-02-15T18:36:57.809Z,4.03
2019-02-15T18:38:32.601Z,5.53
2019-02-15T18:40:08.002Z,5.00
2019-02-15T18:41:42.939Z,3.93
2019-02-15T18:43:17.977Z,3.90
2019-02-15T18:44:52.765Z,5.87
2019-02-15T18:46:28.449Z,4.63
2019-02-15T18:48:03.193Z,6.43
2019-02-15T18:49:38.993Z,4.27
2019-02-15T18:51:13.764Z,5.77
2019-02-15T18:52:48.577Z,6.47
2019-02-15T18:54:23.370Z,4.83
2019-02-15T18:55:58.136Z,4.50
2019-02-15T18:57:32.914Z,6.70
2019-02-15T18:59:07.685Z,3.70
2019-02-15T19:00:42.510Z,4.20
2019-02-15T19:02:17.360Z,4.77
2019-02-15T19:03:52.386Z,6.90
2019-02-15T19:05:27.185Z,3.83
2019-02-15T19:07:02.210Z,6.67
2019-02-15T19:08:36.997Z,5.03
2019-02-15T19:10:13.546Z,4.80
2019-02-15T19:11:48.289Z,5.93
2019-02-15T19:13:23.088Z,4.83
2019-02-15T19:14:57.857Z,5.83
2019-02-15T19:16:32.738Z,6.05
2019-02-15T19:18:07.482Z,2.97
2019-02-15T19:19:42.305Z,4.37
2019-02-15T19:21:17.135Z,3.33
2019-02-15T19:22:51.954Z,4.13
2019-02-15T19:24:26.749Z,4.73
2019-02-15T19:26:01.513Z,4.33
2019-02-15T19:27:36.364Z,3.50
2019-02-15T19:29:12.942Z,3.40
2019-02-15T19:30:47.697Z,2.33
2019-02-15T19:32:22.586Z,2.03
2019-02-15T19:33:57.450Z,3.80
2019-02-15T19:35:32.165Z,2.20
2019-02-15T19:37:06.877Z,2.80
2019-02-15T19:38:41.666Z,2.37
2019-02-15T19:40:16.586Z,3.23
2019-02-15T19:41:51.309Z,4.63
2019-02-15T19:43:26.014Z,4.87
2019-02-15T19:45:00.754Z,3.23
2019-02-15T19:46:35.594Z,2.70
2019-02-15T19:48:10.378Z,4.17
2019-02-15T19:49:45.085Z,4.50
2019-02-15T19:51:19.822Z,2.57
2019-02-15T19:52:54.593Z,2.93
2019-02-15T19:54:29.301Z,2.63
2019-02-15T19:56:04.111Z,2.03
2019-02-15T19:57:38.920Z,2.87
2019-02-15T19:59:13.722Z,2.10
2019-02-15T20:00:48.611Z,2.40
2019-02-15T20:02:23.335Z,2.43
2019-02-15T20:03:58.322Z,2.40
2019-02-15T20:05:33.137Z,3.07
2019-02-15T20:07:08.559Z,2.70
2019-02-15T20:08:43.293Z,2.50
2019-02-15T20:10:19.689Z,2.57
2019-02-15T20:11:54.551Z,2.93
2019-02-15T20:13:29.377Z,2.63
2019-02-15T20:15:04.238Z,2.10
2019-02-15T20:16:39.319Z,3.43
2019-02-15T20:18:14.066Z,3.20
2019-02-15T20:19:50.856Z,3.20
2019-02-15T20:21:25.289Z,2.00
2019-02-15T20:23:00.038Z,3.17
2019-02-15T20:24:34.759Z,2.67
2019-02-15T20:26:09.558Z,3.07
2019-02-15T20:27:44.349Z,2.10
2019-02-15T20:29:19.102Z,2.30
2019-02-15T20:30:53.961Z,2.33
2019-02-15T20:32:29.761Z,2.57
2019-02-15T20:34:04.481Z,2.83
2019-02-15T20:35:39.245Z,2.70
2019-02-15T20:37:13.974Z,2.80
2019-02-15T20:38:48.737Z,2.27
2019-02-15T20:40:23.510Z,2.63
2019-02-15T20:41:58.227Z,2.77
2019-02-15T20:43:32.970Z,2.77
2019-02-15T20:45:10.954Z,4.37
2019-02-15T20:46:46.654Z,2.70
2019-02-15T20:48:21.465Z,3.47
2019-02-15T20:49:58.244Z,3.47
2019-02-15T20:51:36.450Z,3.00
2019-02-15T20:53:11.286Z,4.67
2019-02-15T20:54:46.165Z,4.97
2019-02-15T20:56:20.960Z,3.77
2019-02-15T20:57:55.669Z,3.10
2019-02-15T20:59:30.564Z,3.50
2019-02-15T21:01:05.516Z,4.73
2019-02-15T21:02:40.318Z,4.10
2019-02-15T21:04:15.045Z,4.77
2019-02-15T21:05:49.817Z,2.57
2019-02-15T21:07:24.565Z,2.57
2019-02-15T21:08:59.278Z,3.47
2019-02-15T21:10:34.036Z,3.07
2019-02-15T21:12:09.757Z,5.07
2019-02-15T21:13:44.485Z,3.67